createdAt,value
2023-05-19T00:02:01.121Z,2.30
2023-05-19T00:04:30.136Z,2.43
2023-05-19T00:07:01.347Z,1.90
2023-05-19T00:09:30.189Z,2.20
2023-05-19T00:11:59.213Z,1.70
2023-05-19T00:14:29.010Z,2.03
2023-05-19T00:16:59.176Z,1.90
2023-05-19T00:19:32.220Z,2.00
2023-05-19T00:22:00.525Z,2.00
2023-05-19T00:24:29.079Z,1.73
2023-05-19T00:26:57.208Z,1.73
2023-05-19T00:29:25.616Z,1.87
2023-05-19T00:31:53.921Z,2.17
2023-05-19T00:34:23.444Z,1.80
2023-05-19T00:36:51.828Z,1.70
2023-05-19T00:39:23.954Z,1.83
2023-05-19T00:41:52.129Z,2.03
2023-05-19T00:44:20.242Z,2.27
2023-05-19T00:46:48.437Z,1.53
2023-05-19T00:49:16.485Z,1.90
2023-05-19T00:51:46.446Z,2.00
2023-05-19T00:54:14.554Z,1.70
2023-05-19T00:56:42.906Z,1.70
2023-05-19T00:59:11.106Z,1.93
2023-05-19T01:01:39.946Z,2.03
2023-05-19T01:04:10.063Z,2.10
2023-05-19T01:06:38.640Z,1.97
2023-05-19T01:09:09.049Z,1.80
2023-05-19T01:11:37.219Z,1.90
2023-05-19T01:14:05.389Z,1.90
2023-05-19T01:16:41.455Z,1.83
2023-05-19T01:19:36.861Z,1.80
2023-05-19T01:22:23.863Z,1.53
2023-05-19T01:25:43.620Z,1.93
2023-05-19T01:28:43.996Z,1.70
2023-05-19T01:31:14.848Z,1.80
2023-05-19T01:33:46.631Z,1.90
2023-05-19T01:36:16.927Z,2.13
2023-05-19T01:38:46.532Z,1.93
2023-05-19T01:41:15.796Z,1.70
2023-05-19T01:43:44.110Z,1.67
2023-05-19T01:46:14.867Z,1.60
2023-05-19T01:48:45.642Z,1.77
2023-05-19T01:51:15.096Z,2.17
2023-05-19T01:53:44.205Z,2.30
2023-05-19T01:56:13.599Z,1.70
2023-05-19T01:58:46.920Z,1.80
2023-05-19T02:01:30.795Z,1.93
2023-05-19T02:04:14.153Z,1.90
2023-05-19T02:06:47.384Z,1.80
2023-05-19T02:09:24.391Z,2.20
2023-05-19T02:11:57.036Z,1.80
2023-05-19T02:14:31.663Z,2.07
2023-05-19T02:17:05.366Z,2.00
2023-05-19T02:19:36.655Z,1.90
2023-05-19T02:22:05.310Z,1.57
2023-05-19T02:24:33.628Z,2.00
2023-05-19T02:27:01.792Z,2.20
2023-05-19T02:29:30.002Z,2.10
2023-05-19T02:31:58.128Z,1.93
2023-05-19T02:34:28.073Z,1.97
2023-05-19T02:36:56.566Z,1.90
2023-05-19T02:39:24.640Z,1.90
2023-05-19T02:41:52.951Z,1.87
2023-05-19T02:44:21.185Z,2.00
2023-05-19T02:46:49.328Z,2.33
2023-05-19T02:49:17.588Z,1.80
2023-05-19T02:51:47.028Z,1.90
2023-05-19T02:54:15.137Z,2.10
2023-05-19T02:56:43.297Z,2.00
2023-05-19T02:59:11.398Z,1.93
2023-05-19T03:01:40.480Z,2.10
2023-05-19T03:04:09.058Z,1.80
2023-05-19T03:06:37.670Z,1.70
2023-05-19T03:09:07.354Z,2.40
2023-05-19T03:11:35.487Z,2.07
2023-05-19T03:14:03.604Z,1.63
2023-05-19T03:16:32.525Z,2.23
2023-05-19T03:19:01.883Z,2.27
2023-05-19T03:21:31.986Z,1.97
2023-05-19T03:24:00.257Z,2.27
2023-05-19T03:26:30.440Z,1.80
2023-05-19T03:28:58.620Z,1.73
2023-05-19T03:31:27.199Z,2.00
2023-05-19T03:33:57.796Z,2.30
2023-05-19T03:36:26.288Z,2.07
2023-05-19T03:38:54.688Z,2.10
2023-05-19T03:41:22.819Z,2.40
2023-05-19T03:43:52.225Z,2.30
2023-05-19T03:46:20.747Z,1.97
2023-05-19T03:48:58.023Z,2.33
2023-05-19T03:51:36.673Z,2.47
2023-05-19T03:54:17.963Z,1.97
2023-05-19T03:56:46.165Z,2.23
2023-05-19T03:59:16.223Z,1.80
2023-05-19T04:01:44.342Z,2.67
2023-05-19T04:04:12.455Z,1.60
2023-05-19T04:06:40.781Z,2.37
2023-05-19T04:09:14.413Z,2.00
2023-05-19T04:11:43.069Z,2.13
2023-05-19T04:14:11.465Z,2.23
2023-05-19T04:16:41.707Z,2.53
2023-05-19T04:19:10.212Z,2.10
2023-05-19T04:21:38.365Z,2.23
2023-05-19T04:24:32.535Z,1.80
2023-05-19T04:27:02.764Z,1.90
2023-05-19T04:29:32.853Z,1.77
2023-05-19T04:32:07.801Z,2.10
2023-05-19T04:34:40.318Z,2.20
2023-05-19T04:37:10.158Z,2.17
2023-05-19T04:39:41.354Z,2.20
2023-05-19T04:42:14.658Z,2.27
2023-05-19T04:44:42.739Z,2.10
2023-05-19T04:47:12.517Z,1.90
2023-05-19T04:49:40.714Z,1.97
2023-05-19T04:52:16.057Z,2.00
2023-05-19T04:54:44.297Z,2.13
2023-05-19T04:57:15.021Z,2.17
2023-05-19T04:59:43.330Z,1.97
2023-05-19T05:02:13.208Z,1.93
2023-05-19T05:04:44.119Z,2.37
2023-05-19T05:07:15.463Z,2.40
2023-05-19T05:09:44.217Z,2.23
2023-05-19T05:12:38.922Z,2.30
2023-05-19T05:15:09.141Z,1.80
2023-05-19T05:17:40.172Z,2.33
2023-05-19T05:20:10.143Z,2.17
2023-05-19T05:22:39.600Z,2.03
2023-05-19T05:25:11.416Z,1.73
2023-05-19T05:27:39.651Z,2.13
2023-05-19T05:30:10.476Z,2.13
2023-05-19T05:32:40.866Z,2.07
2023-05-19T05:35:16.393Z,1.93
2023-05-19T05:37:44.734Z,2.20
2023-05-19T05:40:14.299Z,2.13
2023-05-19T05:42:44.290Z,2.10
2023-05-19T05:45:12.921Z,2.07
2023-05-19T05:47:44.191Z,1.90
2023-05-19T05:50:14.531Z,2.03
2023-05-19T05:52:46.659Z,1.80
2023-05-19T05:55:18.361Z,2.33
2023-05-19T05:57:48.759Z,2.03
2023-05-19T06:00:18.298Z,1.90
2023-05-19T06:02:54.831Z,2.03
2023-05-19T06:05:23.223Z,1.90
2023-05-19T06:07:51.490Z,2.77
2023-05-19T06:10:24.297Z,2.30
2023-05-19T06:12:52.683Z,2.27
2023-05-19T06:15:22.823Z,2.20
2023-05-19T06:18:12.819Z,2.33
2023-05-19T06:20:41.415Z,2.07
2023-05-19T06:23:09.733Z,2.00
2023-05-19T06:25:37.942Z,2.50
2023-05-19T06:28:06.972Z,2.60
2023-05-19T06:30:36.715Z,2.10
2023-05-19T06:33:23.054Z,2.20
2023-05-19T06:35:51.291Z,2.47
2023-05-19T06:38:19.536Z,2.43
2023-05-19T06:40:47.902Z,2.70
2023-05-19T06:43:16.085Z,3.03
2023-05-19T06:45:56.097Z,2.57
2023-05-19T06:48:27.658Z,2.50
2023-05-19T06:50:56.065Z,2.70
2023-05-19T06:53:25.694Z,2.33
2023-05-19T06:55:59.815Z,2.57
2023-05-19T06:58:35.055Z,2.47
2023-05-19T07:01:06.275Z,3.03
2023-05-19T07:03:41.916Z,2.60
2023-05-19T07:06:11.622Z,2.33
2023-05-19T07:08:39.870Z,2.43
2023-05-19T07:11:09.536Z,3.53
2023-05-19T07:13:37.666Z,2.50
2023-05-19T07:16:06.602Z,2.40
2023-05-19T07:18:35.490Z,2.70
2023-05-19T07:21:05.577Z,3.10
2023-05-19T07:23:33.757Z,2.80
2023-05-19T07:26:02.073Z,2.40
2023-05-19T07:28:30.194Z,3.13
2023-05-19T07:30:58.379Z,2.97
2023-05-19T07:33:27.014Z,2.90
2023-05-19T07:35:55.172Z,2.60
2023-05-19T07:38:24.611Z,2.83
2023-05-19T07:40:52.776Z,3.30
2023-05-19T07:43:21.034Z,2.70
2023-05-19T07:45:49.220Z,2.70
2023-05-19T07:48:18.739Z,3.10
2023-05-19T07:50:47.258Z,3.10
2023-05-19T07:53:15.521Z,3.10
2023-05-19T07:55:45.283Z,3.57
2023-05-19T07:58:13.433Z,3.23
2023-05-19T08:00:43.094Z,2.90
2023-05-19T08:03:11.593Z,3.20
2023-05-19T08:05:40.630Z,3.00
2023-05-19T08:08:09.557Z,3.00
2023-05-19T08:10:38.021Z,2.73
2023-05-19T08:13:07.463Z,3.30
2023-05-19T08:15:35.814Z,3.00
2023-05-19T08:18:05.369Z,2.37
2023-05-19T08:20:34.129Z,2.87
2023-05-19T08:23:02.776Z,2.67
2023-05-19T08:25:31.270Z,2.93
2023-05-19T08:27:59.457Z,2.50
2023-05-19T08:30:29.042Z,3.13
2023-05-19T08:32:57.204Z,2.20
2023-05-19T08:35:25.899Z,3.10
2023-05-19T08:37:54.057Z,3.00
2023-05-19T08:40:22.625Z,2.80
2023-05-19T08:42:51.347Z,2.63
2023-05-19T08:45:19.535Z,2.97
2023-05-19T08:47:50.002Z,2.90
2023-05-19T08:50:24.868Z,3.47
2023-05-19T08:52:57.745Z,3.03
2023-05-19T08:55:35.190Z,2.93
2023-05-19T08:58:06.017Z,2.50
2023-05-19T09:00:34.810Z,2.43
2023-05-19T09:03:17.422Z,3.00
2023-05-19T09:05:47.388Z,2.17
2023-05-19T09:08:16.113Z,3.13
2023-05-19T09:10:44.304Z,2.33
2023-05-19T09:13:12.607Z,2.33
2023-05-19T09:15:41.363Z,3.10
2023-05-19T09:18:13.020Z,2.90
2023-05-19T09:20:43.807Z,2.50
2023-05-19T09:23:14.941Z,2.50
2023-05-19T09:25:51.089Z,2.87
2023-05-19T09:28:27.336Z,2.57
2023-05-19T09:31:03.131Z,2.50
2023-05-19T09:33:35.350Z,2.20
2023-05-19T09:36:06.039Z,2.63
2023-05-19T09:38:34.423Z,2.60
2023-05-19T09:41:02.991Z,2.70
2023-05-19T09:43:33.473Z,3.00
2023-05-19T09:46:06.831Z,2.30
2023-05-19T09:48:37.302Z,2.43
2023-05-19T09:51:07.853Z,2.33
2023-05-19T09:53:38.933Z,2.70
2023-05-19T09:56:09.779Z,2.60
2023-05-19T09:58:39.097Z,2.53
2023-05-19T10:01:08.020Z,2.50
2023-05-19T10:03:38.932Z,2.70
2023-05-19T10:06:09.150Z,2.53
2023-05-19T10:08:38.740Z,2.37
2023-05-19T10:11:07.664Z,2.50
2023-05-19T10:13:38.496Z,2.50
2023-05-19T10:16:07.979Z,2.13
2023-05-19T10:18:40.110Z,2.50
2023-05-19T10:21:09.797Z,2.33
2023-05-19T10:23:38.087Z,2.90
2023-05-19T10:26:07.894Z,2.70
2023-05-19T10:28:40.580Z,2.60
2023-05-19T10:31:12.690Z,2.67
2023-05-19T10:34:14.710Z,2.50
2023-05-19T10:36:48.657Z,2.23
2023-05-19T10:39:23.054Z,2.53
2023-05-19T10:42:05.759Z,2.10
2023-05-19T10:45:03.639Z,2.27
2023-05-19T10:47:32.640Z,2.20
2023-05-19T10:50:06.813Z,2.47
2023-05-19T10:52:39.174Z,2.50
2023-05-19T10:55:10.292Z,2.40
2023-05-19T10:57:38.544Z,2.30
2023-05-19T11:00:31.447Z,2.50
2023-05-19T11:03:15.038Z,2.33
2023-05-19T11:05:45.699Z,2.13
2023-05-19T11:08:15.870Z,3.07
2023-05-19T11:10:46.610Z,2.13
2023-05-19T11:13:23.021Z,2.80
2023-05-19T11:15:52.827Z,3.13
2023-05-19T11:18:21.638Z,2.60
2023-05-19T11:21:02.744Z,2.67
2023-05-19T11:23:39.212Z,2.50
2023-05-19T11:26:42.979Z,2.20
2023-05-19T11:29:15.655Z,2.50
2023-05-19T11:31:45.309Z,2.70
2023-05-19T11:34:17.407Z,2.40
2023-05-19T11:36:48.230Z,2.80
2023-05-19T11:39:17.711Z,3.00
2023-05-19T11:41:46.136Z,2.83
2023-05-19T11:44:14.425Z,2.67
2023-05-19T11:46:42.611Z,2.60
2023-05-19T11:49:11.118Z,2.47
2023-05-19T11:51:39.884Z,3.00
2023-05-19T11:54:09.522Z,2.57
2023-05-19T11:56:41.711Z,2.43
2023-05-19T11:59:10.490Z,2.67
2023-05-19T12:01:38.634Z,2.37
2023-05-19T12:04:10.258Z,2.17
2023-05-19T12:06:38.473Z,2.70
2023-05-19T12:09:06.855Z,2.80
2023-05-19T12:11:36.432Z,2.70
2023-05-19T12:14:04.707Z,2.50
2023-05-19T12:16:36.213Z,2.33
2023-05-19T12:19:07.210Z,2.53
2023-05-19T12:21:36.218Z,2.97
2023-05-19T12:24:06.043Z,2.40
2023-05-19T12:26:36.494Z,2.90
2023-05-19T12:29:07.694Z,3.27
2023-05-19T12:31:36.378Z,2.47
2023-05-19T12:34:04.620Z,3.13
2023-05-19T12:36:33.805Z,2.77
2023-05-19T12:39:02.145Z,3.07
2023-05-19T12:41:30.740Z,2.87
2023-05-19T12:44:03.814Z,3.60
2023-05-19T12:46:34.234Z,3.40
2023-05-19T12:49:02.561Z,2.63
2023-05-19T12:51:54.654Z,2.87
2023-05-19T12:54:23.162Z,3.13
2023-05-19T12:56:52.477Z,3.10
2023-05-19T12:59:37.975Z,3.73
2023-05-19T13:02:07.970Z,3.53
2023-05-19T13:04:36.355Z,4.20
2023-05-19T13:07:04.910Z,5.07
2023-05-19T13:09:35.228Z,3.37
2023-05-19T13:12:04.742Z,3.00
2023-05-19T13:14:34.288Z,3.30
2023-05-19T13:17:03.273Z,3.80
2023-05-19T13:19:31.443Z,2.97
2023-05-19T13:21:59.931Z,2.90
2023-05-19T13:24:28.095Z,3.00
2023-05-19T13:26:56.338Z,2.60
2023-05-19T13:29:24.681Z,2.60
2023-05-19T13:31:54.500Z,3.10
2023-05-19T13:34:23.239Z,2.63
2023-05-19T13:36:51.462Z,3.27
2023-05-19T13:39:19.866Z,3.07
2023-05-19T13:41:47.995Z,3.67
2023-05-19T13:44:16.676Z,3.50
2023-05-19T13:46:46.515Z,3.27
2023-05-19T13:49:17.592Z,2.73
2023-05-19T13:51:45.755Z,3.07
2023-05-19T13:54:19.369Z,2.67
2023-05-19T13:56:48.709Z,3.20
2023-05-19T13:59:17.732Z,4.07
2023-05-19T14:01:46.506Z,3.63
2023-05-19T14:04:15.288Z,3.10
2023-05-19T14:06:44.974Z,2.93
2023-05-19T14:09:13.759Z,2.97
2023-05-19T14:11:41.892Z,4.20
2023-05-19T14:14:11.455Z,2.90
2023-05-19T14:16:40.067Z,2.73
2023-05-19T14:19:08.552Z,3.10
2023-05-19T14:21:38.053Z,2.97
2023-05-19T14:24:08.097Z,2.50
2023-05-19T14:26:36.560Z,2.60
2023-05-19T14:29:04.954Z,3.13
2023-05-19T14:31:34.262Z,2.83
2023-05-19T14:34:02.503Z,2.97
2023-05-19T14:36:31.162Z,3.20
2023-05-19T14:38:59.253Z,3.00
2023-05-19T14:41:28.974Z,2.50
2023-05-19T14:43:57.085Z,3.50
2023-05-19T14:46:25.232Z,2.93
2023-05-19T14:48:53.347Z,3.40
2023-05-19T14:51:21.731Z,2.93
2023-05-19T14:53:50.354Z,3.03
2023-05-19T14:56:18.530Z,3.87
2023-05-19T14:58:48.001Z,3.20
2023-05-19T15:01:16.295Z,3.03
2023-05-19T15:03:44.507Z,3.00
2023-05-19T15:06:12.635Z,3.00
2023-05-19T15:08:41.115Z,2.60
2023-05-19T15:11:09.297Z,4.10
2023-05-19T15:13:37.383Z,3.30
2023-05-19T15:16:17.295Z,3.00
2023-05-19T15:18:46.097Z,3.60
2023-05-19T15:21:14.386Z,2.80
2023-05-19T15:23:42.544Z,3.40
2023-05-19T15:26:10.873Z,3.20
2023-05-19T15:28:39.117Z,4.27
2023-05-19T15:31:09.303Z,4.73
2023-05-19T15:33:37.720Z,5.80
2023-05-19T15:36:07.073Z,5.73
2023-05-19T15:38:37.120Z,5.10
2023-05-19T15:41:08.852Z,3.50
2023-05-19T15:43:37.119Z,3.60
2023-05-19T15:46:05.945Z,3.73
2023-05-19T15:48:35.605Z,5.30
2023-05-19T15:51:03.837Z,4.87
2023-05-19T15:53:32.021Z,3.63
2023-05-19T15:56:01.432Z,6.50
2023-05-19T15:58:32.620Z,8.97
2023-05-19T16:01:05.285Z,5.10
2023-05-19T16:03:35.099Z,3.47
2023-05-19T16:06:03.579Z,4.13
2023-05-19T16:08:31.864Z,4.70
2023-05-19T16:11:01.763Z,3.70
2023-05-19T16:13:34.181Z,3.53
2023-05-19T16:16:02.955Z,3.73
2023-05-19T16:18:31.115Z,4.73
2023-05-19T16:21:00.573Z,4.63
2023-05-19T16:23:28.764Z,4.10
2023-05-19T16:25:57.509Z,3.43
2023-05-19T16:28:26.019Z,3.73
2023-05-19T16:30:57.648Z,3.00
2023-05-19T16:33:25.987Z,2.80
2023-05-19T16:35:54.185Z,3.10
2023-05-19T16:38:23.780Z,3.57
2023-05-19T16:40:52.011Z,2.73
2023-05-19T16:43:20.137Z,3.17
2023-05-19T16:45:49.121Z,2.80
2023-05-19T16:48:17.275Z,3.30
2023-05-19T16:50:45.444Z,3.07
2023-05-19T16:53:13.597Z,3.23
2023-05-19T16:55:43.082Z,3.70
2023-05-19T16:58:12.053Z,4.23
2023-05-19T17:00:40.304Z,3.77
2023-05-19T17:03:08.778Z,2.93
2023-05-19T17:05:38.980Z,3.70
2023-05-19T17:08:07.198Z,3.80
2023-05-19T17:10:36.034Z,3.70
2023-05-19T17:13:05.760Z,3.63
2023-05-19T17:15:35.272Z,3.90
2023-05-19T17:18:03.652Z,3.20
2023-05-19T17:20:32.261Z,2.60
2023-05-19T17:23:00.707Z,3.30
2023-05-19T17:25:30.688Z,2.93
2023-05-19T17:27:58.757Z,2.50
2023-05-19T17:30:28.335Z,2.50
2023-05-19T17:32:58.956Z,2.40
2023-05-19T17:35:28.552Z,2.23
2023-05-19T17:37:57.912Z,2.60
2023-05-19T17:40:26.194Z,2.50
2023-05-19T17:42:54.320Z,2.50
2023-05-19T17:45:23.259Z,2.43
2023-05-19T17:47:52.733Z,2.40
2023-05-19T17:50:20.847Z,2.27
2023-05-19T17:52:49.808Z,2.40
2023-05-19T17:55:19.081Z,2.40
2023-05-19T17:57:48.363Z,2.20
2023-05-19T18:00:17.453Z,2.37
2023-05-19T18:02:46.725Z,2.27
2023-05-19T18:05:18.463Z,2.20
2023-05-19T18:07:47.047Z,1.90
2023-05-19T18:10:17.272Z,2.17
2023-05-19T18:12:45.949Z,2.43
2023-05-19T18:15:16.988Z,2.50
2023-05-19T18:17:45.136Z,2.20
2023-05-19T18:20:14.407Z,2.40
2023-05-19T18:22:43.996Z,2.20
2023-05-19T18:25:12.112Z,2.33
2023-05-19T18:27:42.548Z,2.40
2023-05-19T18:30:11.463Z,2.73
2023-05-19T18:32:39.887Z,2.30
2023-05-19T18:35:09.496Z,2.47
2023-05-19T18:37:37.814Z,2.70
2023-05-19T18:40:09.491Z,2.77
2023-05-19T18:42:37.800Z,2.53
2023-05-19T18:45:07.502Z,2.53
2023-05-19T18:47:35.702Z,3.30
2023-05-19T18:50:04.307Z,3.27
2023-05-19T18:52:32.463Z,3.50
2023-05-19T18:55:01.581Z,3.90
2023-05-19T18:57:31.041Z,3.90
2023-05-19T18:59:59.316Z,3.20
2023-05-19T19:02:28.315Z,2.77
2023-05-19T19:04:56.879Z,2.87
2023-05-19T19:07:26.722Z,3.43
2023-05-19T19:09:54.918Z,3.37
2023-05-19T19:12:23.148Z,3.87
2023-05-19T19:14:52.616Z,3.23
2023-05-19T19:17:21.040Z,3.00
2023-05-19T19:19:49.694Z,3.37
2023-05-19T19:22:17.976Z,2.83
2023-05-19T19:24:46.362Z,3.13
2023-05-19T19:27:16.342Z,3.20
2023-05-19T19:29:44.705Z,2.87
2023-05-19T19:32:14.220Z,4.70
2023-05-19T19:34:42.367Z,7.40
2023-05-19T19:37:11.084Z,5.77
2023-05-19T19:39:39.459Z,8.37
2023-05-19T19:42:07.667Z,12.33
2023-05-19T19:44:35.867Z,5.27
2023-05-19T19:47:06.150Z,3.23
2023-05-19T19:49:36.107Z,2.83
2023-05-19T19:52:04.607Z,3.10
2023-05-19T19:54:33.138Z,2.80
2023-05-19T19:57:01.656Z,2.97
2023-05-19T19:59:30.590Z,2.93
2023-05-19T20:01:58.873Z,2.70
2023-05-19T20:04:33.391Z,2.73
2023-05-19T20:07:03.141Z,2.97
2023-05-19T20:09:31.315Z,2.50
2023-05-19T20:11:59.466Z,2.60
2023-05-19T20:14:27.658Z,2.23
2023-05-19T20:16:55.863Z,2.80
2023-05-19T20:19:29.097Z,2.40
2023-05-19T20:21:57.340Z,2.33
2023-05-19T20:24:26.910Z,2.77
2023-05-19T20:26:55.094Z,2.07
2023-05-19T20:29:23.879Z,2.53
2023-05-19T20:31:52.055Z,2.43
2023-05-19T20:34:20.235Z,2.13
2023-05-19T20:36:48.468Z,2.60
2023-05-19T20:39:16.605Z,3.10
2023-05-19T20:41:46.242Z,2.67
2023-05-19T20:44:15.256Z,2.57
2023-05-19T20:46:43.461Z,2.30
2023-05-19T20:49:11.627Z,2.60
2023-05-19T20:51:39.767Z,2.20
2023-05-19T20:54:08.096Z,2.10
2023-05-19T20:56:36.357Z,2.40
2023-05-19T20:59:05.965Z,2.03
2023-05-19T21:01:34.158Z,2.23
2023-05-19T21:04:06.671Z,2.27
2023-05-19T21:06:35.478Z,2.53
2023-05-19T21:09:06.537Z,2.50
2023-05-19T21:11:34.844Z,2.23
2023-05-19T21:14:04.912Z,2.47
2023-05-19T21:16:34.006Z,2.17
2023-05-19T21:19:02.762Z,2.27
2023-05-19T21:21:31.666Z,2.80
2023-05-19T21:24:00.426Z,2.13
2023-05-19T21:26:28.515Z,2.20
2023-05-19T21:28:56.935Z,2.70
2023-05-19T21:31:27.822Z,2.10
2023-05-19T21:33:55.954Z,2.80
2023-05-19T21:36:24.069Z,2.00
2023-05-19T21:38:52.236Z,2.50
2023-05-19T21:41:21.263Z,2.27
2023-05-19T21:43:49.482Z,2.50
2023-05-19T21:46:20.306Z,2.27
2023-05-19T21:48:49.803Z,2.67
2023-05-19T21:51:17.828Z,2.20
2023-05-19T21:53:46.150Z,2.90
2023-05-19T21:56:14.537Z,2.20
2023-05-19T21:58:42.663Z,2.00
2023-05-19T22:01:10.934Z,2.00
2023-05-19T22:03:39.172Z,2.00
2023-05-19T22:06:09.322Z,2.73
2023-05-19T22:08:37.974Z,2.37
2023-05-19T22:11:06.721Z,3.10
2023-05-19T22:13:37.389Z,2.80
2023-05-19T22:16:06.170Z,2.40
2023-05-19T22:18:34.415Z,2.80
2023-05-19T22:21:02.610Z,2.90
2023-05-19T22:23:32.223Z,3.57
2023-05-19T22:26:00.850Z,2.50
2023-05-19T22:28:28.985Z,2.60
2023-05-19T22:30:57.217Z,2.90
2023-05-19T22:33:25.322Z,2.73
2023-05-19T22:35:53.548Z,3.43
2023-05-19T22:38:21.746Z,2.63
2023-05-19T22:40:51.254Z,2.57
2023-05-19T22:43:19.424Z,2.57
2023-05-19T22:45:47.630Z,2.80
2023-05-19T22:48:16.312Z,3.07
2023-05-19T22:50:44.501Z,2.97
2023-05-19T22:53:12.586Z,2.80
2023-05-19T22:55:40.846Z,2.80
2023-05-19T22:58:10.307Z,2.83
2023-05-19T23:00:38.395Z,2.97
2023-05-19T23:03:06.550Z,2.60
2023-05-19T23:05:35.369Z,2.60
2023-05-19T23:08:03.791Z,2.70
2023-05-19T23:10:31.946Z,2.40
2023-05-19T23:13:00.072Z,2.57
2023-05-19T23:15:29.663Z,2.73
2023-05-19T23:17:57.844Z,2.60
2023-05-19T23:20:25.989Z,2.70
2023-05-19T23:22:54.135Z,2.87
2023-05-19T23:25:22.287Z,2.90
2023-05-19T23:27:50.376Z,2.90
2023-05-19T23:30:18.731Z,2.70
2023-05-19T23:32:48.293Z,2.37
2023-05-19T23:35:18.204Z,2.50
2023-05-19T23:37:46.297Z,3.00
2023-05-19T23:40:15.010Z,2.47
2023-05-19T23:42:44.558Z,2.40
2023-05-19T23:45:13.099Z,2.53
2023-05-19T23:47:41.358Z,2.97
2023-05-19T23:50:11.721Z,2.60
2023-05-19T23:52:39.880Z,2.93
2023-05-19T23:55:09.859Z,2.23
2023-05-19T23:57:38.135Z,2.87
